Airfield :
LOGIN :

Register | Disclaimer

   EN    FR    IT 

 










Legend :    VFR   Marginal VFR   IFR   Intensive IFR   Very Intensive IFR
Visi :
Ceiling :
>= 8 km
>= 3000ft
5 to 8 km
1000 to 3000 ft
1500m to 5 km
500 to 1000 ft
800 to 1500m
200 to 500 ft
< 800m
< 200 ft
Symbols :   Thunderstorms  Fog  Heavy snow  Heavy precipitations  Wind > 20 kt
SIGMETs :     Misc.  Thunderstorms  Icing  Turbulence  Mountain Waves  Volcanic Ashes







- Airport Elevation : 302 ft
- IATA code : CGN


EDDK - Cologne Bonn

CURRENT METAR :
  • 162150Z 27006KT 9999 -SHSNRA SCT008CB BKN012 03/02 Q1017 RESHSN NOSIG

EXPIRED METARs :
  • 162120Z 28009KT 6000 SHSNRA SCT008CB BKN010 BKN017 02/02 Q1017 BECMG NSW
  • 162050Z 28010KT 9999 -SHRASN SCT008TCU BKN010 03/02 Q1017 TEMPO BKN009
  • 162020Z 28009KT 9999 -SHRA SCT008TCU BKN011 BKN018 03/02 Q1017 TEMPO BKN009
  • 161950Z 28010KT 9999 -SHRA FEW007TCU BKN010 BKN030 03/02 Q1016 TEMPO BKN009

TAF TAF EDDK
Valid from the 16 at 18:00 until the 18 at 00:00 UTC


161700Z 1618/1724 28011KT 9999 SCT030
BECMG 1618/1621 27005KT
TEMPO 1618/1624 4000 -SHRA BKN012TCU
BECMG 1700/1703 BKN007
BECMG 1709/1712 SCT020
BECMG 1714/1717 21005KT
BECMG 1718/1721 15008KT
No reported NOTAMs for that airfield.



MET'MAP, your aeronautical weather chart ! - Copyright ORBIFLY December 2007 - Disclaimer

ORBIFLY MET'MAP TEAM :

Programming & Development : Alexandra Zaïnal
Concept & Development : Baudouin d'Aumeries
Co-Development & Prog : Marc-Olivier Méhu
Technical & hardware support : Manuel Goepfert

Contact : metmap@orbifly.com




SOURCES & CREDITS :

   NOAA